createdAt,value
2018-02-01T00:01:40.935Z,73.70
2018-02-01T00:04:08.477Z,73.20
2018-02-01T00:06:36.009Z,73.20
2018-02-01T00:09:04.294Z,71.20
2018-02-01T00:11:32.534Z,71.70
2018-02-01T00:14:00.044Z,71.20
2018-02-01T00:16:28.296Z,73.10
2018-02-01T00:18:55.786Z,72.50
2018-02-01T00:21:24.264Z,72.20
2018-02-01T00:23:51.984Z,72.20
2018-02-01T00:26:20.359Z,72.80
2018-02-01T00:28:49.365Z,71.70
2018-02-01T00:31:17.641Z,71.50
2018-02-01T00:33:45.991Z,70.50
2018-02-01T00:36:16.054Z,70.50
2018-02-01T00:38:43.566Z,70.10
2018-02-01T00:41:11.045Z,69.70
2018-02-01T00:43:38.615Z,69.30
2018-02-01T00:46:06.113Z,69.10
2018-02-01T00:48:33.758Z,68.40
2018-02-01T00:51:02.266Z,69.70
2018-02-01T00:53:30.045Z,69.60
2018-02-01T00:55:57.543Z,68.80
2018-02-01T00:58:25.057Z,68.70
2018-02-01T01:00:54.403Z,68.40
2018-02-01T01:03:21.951Z,68.30
2018-02-01T01:05:50.233Z,68.00
2018-02-01T01:08:18.512Z,68.30
2018-02-01T01:10:46.809Z,68.20
2018-02-01T01:13:15.679Z,68.30
2018-02-01T01:15:43.185Z,68.30
2018-02-01T01:18:10.725Z,68.10
2018-02-01T01:20:38.229Z,68.10
2018-02-01T01:23:06.468Z,69.00
2018-02-01T01:25:33.962Z,68.10
2018-02-01T01:28:02.073Z,68.30
2018-02-01T01:30:30.324Z,68.40
2018-02-01T01:32:59.370Z,68.30
2018-02-01T01:35:27.740Z,68.80
2018-02-01T01:37:55.271Z,68.70
2018-02-01T01:40:22.921Z,69.00
2018-02-01T01:42:50.426Z,69.30
2018-02-01T01:45:17.913Z,69.30
2018-02-01T01:47:45.610Z,69.70
2018-02-01T01:50:13.845Z,69.60
2018-02-01T01:52:41.422Z,69.60
2018-02-01T01:55:08.914Z,69.80
2018-02-01T01:57:37.149Z,69.60
2018-02-01T02:00:04.645Z,69.80
2018-02-01T02:02:32.146Z,69.50
2018-02-01T02:04:59.753Z,69.80
2018-02-01T02:07:27.345Z,70.00
2018-02-01T02:09:54.852Z,69.80
2018-02-01T02:12:22.581Z,69.90
2018-02-01T02:14:50.081Z,70.10
2018-02-01T02:17:18.536Z,70.10
2018-02-01T02:19:46.144Z,69.60
2018-02-01T02:22:13.854Z,69.60
2018-02-01T02:24:42.097Z,69.60
2018-02-01T02:27:09.609Z,69.50
2018-02-01T02:29:37.091Z,69.50
2018-02-01T02:32:05.396Z,69.50
2018-02-01T02:34:32.968Z,69.30
2018-02-01T02:37:00.466Z,69.00
2018-02-01T02:39:27.968Z,68.90
2018-02-01T02:41:55.452Z,69.00
2018-02-01T02:44:23.741Z,69.60
2018-02-01T02:46:51.981Z,69.40
2018-02-01T02:49:19.490Z,69.40
2018-02-01T02:51:47.107Z,69.30
2018-02-01T02:54:14.683Z,68.50
2018-02-01T02:56:42.326Z,68.90
2018-02-01T02:59:10.609Z,69.20
2018-02-01T03:01:39.100Z,69.20
2018-02-01T03:04:07.399Z,68.50
2018-02-01T03:06:35.692Z,68.10
2018-02-01T03:09:03.998Z,68.40
2018-02-01T03:11:31.585Z,68.40
2018-02-01T03:13:59.130Z,68.40
2018-02-01T03:16:26.712Z,68.50
2018-02-01T03:18:54.270Z,68.70
2018-02-01T03:21:22.525Z,68.50
2018-02-01T03:23:50.133Z,68.50
2018-02-01T03:26:17.632Z,68.80
2018-02-01T03:28:45.137Z,68.90
2018-02-01T03:31:14.234Z,69.10
2018-02-01T03:33:41.751Z,69.00
2018-02-01T03:36:09.425Z,68.80
2018-02-01T03:38:36.947Z,68.70
2018-02-01T03:41:04.476Z,68.90
2018-02-01T03:43:32.112Z,68.80
2018-02-01T03:46:00.389Z,68.80
2018-02-01T03:48:28.014Z,68.80
2018-02-01T03:50:55.505Z,68.70
2018-02-01T03:53:23.027Z,68.80
2018-02-01T03:55:51.326Z,69.20
2018-02-01T03:58:19.613Z,69.60
2018-02-01T04:00:47.898Z,69.50
2018-02-01T04:03:16.265Z,69.30
2018-02-01T04:05:43.849Z,69.30
2018-02-01T04:08:12.147Z,70.10
2018-02-01T04:10:40.451Z,69.30
2018-02-01T04:13:08.108Z,69.20
2018-02-01T04:15:36.465Z,69.50
2018-02-01T04:18:04.060Z,69.50
2018-02-01T04:20:31.558Z,69.30
2018-02-01T04:22:59.125Z,69.60
2018-02-01T04:25:26.645Z,69.60
2018-02-01T04:27:54.897Z,69.60
2018-02-01T04:30:22.435Z,69.40
2018-02-01T04:32:49.931Z,69.40
2018-02-01T04:35:17.496Z,69.50
2018-02-01T04:37:45.054Z,69.20
2018-02-01T04:40:13.421Z,69.60
2018-02-01T04:42:40.945Z,69.60
2018-02-01T04:45:08.614Z,69.70
2018-02-01T04:47:36.395Z,69.60
2018-02-01T04:50:04.056Z,69.70
2018-02-01T04:52:31.573Z,69.50
2018-02-01T04:54:59.127Z,69.70
2018-02-01T04:57:26.794Z,69.80
2018-02-01T04:59:54.301Z,69.90
2018-02-01T05:02:21.951Z,70.00
2018-02-01T05:04:49.441Z,69.90
2018-02-01T05:07:16.936Z,69.40
2018-02-01T05:09:45.221Z,68.60
2018-02-01T05:12:13.532Z,68.40
2018-02-01T05:14:41.042Z,68.30
2018-02-01T05:17:08.546Z,67.90
2018-02-01T05:19:36.846Z,67.30
2018-02-01T05:22:05.187Z,67.00
2018-02-01T05:24:32.702Z,67.00
2018-02-01T05:27:00.965Z,67.30
2018-02-01T05:29:28.461Z,68.00
2018-02-01T05:31:56.815Z,67.20
2018-02-01T05:34:24.364Z,67.20
2018-02-01T05:36:51.860Z,67.40
2018-02-01T05:39:19.370Z,67.10
2018-02-01T05:41:47.545Z,67.30
2018-02-01T05:44:15.841Z,67.30
2018-02-01T05:46:43.396Z,67.30
2018-02-01T05:49:11.696Z,66.70
2018-02-01T05:51:40.057Z,66.50
2018-02-01T05:54:08.450Z,66.40
2018-02-01T05:56:35.957Z,66.20
2018-02-01T05:59:03.641Z,66.00
2018-02-01T06:01:31.221Z,66.20
2018-02-01T06:03:58.889Z,66.10
2018-02-01T06:06:26.441Z,66.40
2018-02-01T06:08:54.719Z,66.70
2018-02-01T06:11:22.232Z,66.70
2018-02-01T06:13:49.781Z,66.70
2018-02-01T06:16:17.333Z,66.70
2018-02-01T06:18:45.607Z,67.00
2018-02-01T06:21:13.093Z,67.00
2018-02-01T06:23:41.398Z,67.30
2018-02-01T06:26:08.905Z,67.10
2018-02-01T06:28:36.453Z,66.90
2018-02-01T06:31:03.998Z,66.90
2018-02-01T06:33:32.274Z,66.80
2018-02-01T06:35:59.935Z,66.80
2018-02-01T06:38:27.463Z,67.00
2018-02-01T06:40:55.126Z,66.20
2018-02-01T06:43:22.802Z,66.90
2018-02-01T06:45:50.426Z,66.00
2018-02-01T06:48:20.090Z,65.60
2018-02-01T06:50:48.471Z,65.70
2018-02-01T06:53:16.062Z,65.60
2018-02-01T06:55:43.621Z,65.40
2018-02-01T06:58:11.189Z,65.00
2018-02-01T07:00:44.286Z,64.90
2018-02-01T07:03:12.628Z,65.00
2018-02-01T07:05:40.138Z,65.00
2018-02-01T07:08:09.000Z,64.60
2018-02-01T07:10:36.498Z,64.60
2018-02-01T07:13:04.001Z,64.50
2018-02-01T07:15:31.578Z,65.10
2018-02-01T07:17:59.133Z,64.50
2018-02-01T07:20:27.966Z,63.80
2018-02-01T07:22:55.465Z,63.80
2018-02-01T07:25:22.965Z,64.00
2018-02-01T07:27:51.282Z,63.90
2018-02-01T07:30:18.786Z,63.90
2018-02-01T07:32:46.383Z,63.60
2018-02-01T07:35:13.888Z,63.70
2018-02-01T07:37:41.461Z,63.60
2018-02-01T07:40:09.057Z,63.80
2018-02-01T07:42:36.697Z,63.90
2018-02-01T07:45:04.951Z,64.20
2018-02-01T07:47:33.263Z,64.30
2018-02-01T07:50:01.674Z,64.30
2018-02-01T07:52:29.195Z,64.20
2018-02-01T07:54:56.757Z,64.30
2018-02-01T07:57:25.107Z,64.20
2018-02-01T07:59:53.686Z,64.30
2018-02-01T08:02:22.090Z,64.20
2018-02-01T08:04:49.626Z,64.20
2018-02-01T08:07:18.780Z,63.80
2018-02-01T08:09:46.311Z,63.80
2018-02-01T08:12:13.789Z,63.60
2018-02-01T08:14:42.065Z,63.30
2018-02-01T08:17:09.595Z,63.30
2018-02-01T08:19:37.345Z,63.60
2018-02-01T08:22:04.979Z,63.50
2018-02-01T08:24:33.263Z,64.20
2018-02-01T08:27:00.884Z,63.50
2018-02-01T08:29:28.401Z,69.00
2018-02-01T08:31:56.023Z,65.60
2018-02-01T08:34:24.330Z,62.80
2018-02-01T08:36:51.841Z,62.70
2018-02-01T08:39:19.352Z,62.00
2018-02-01T08:41:46.907Z,61.40
2018-02-01T08:44:15.184Z,60.30
2018-02-01T08:46:42.728Z,60.30
2018-02-01T08:49:10.226Z,60.20
2018-02-01T08:51:37.754Z,59.00
2018-02-01T08:54:11.008Z,58.60
2018-02-01T08:56:39.311Z,58.90
2018-02-01T08:59:07.618Z,59.10
2018-02-01T09:01:35.184Z,59.10
2018-02-01T09:04:02.727Z,59.30
2018-02-01T09:06:31.030Z,59.90
2018-02-01T09:08:59.405Z,59.60
2018-02-01T09:11:27.006Z,59.60
2018-02-01T09:13:54.608Z,58.80
2018-02-01T09:16:22.252Z,59.20
2018-02-01T09:18:49.926Z,59.30
2018-02-01T09:21:17.545Z,59.20
2018-02-01T09:23:45.812Z,59.20
2018-02-01T09:26:13.323Z,59.40
2018-02-01T09:28:41.633Z,59.10
2018-02-01T09:31:09.896Z,58.70
2018-02-01T09:33:37.403Z,58.60
2018-02-01T09:36:04.965Z,58.40
2018-02-01T09:38:33.244Z,58.50
2018-02-01T09:41:01.585Z,58.00
2018-02-01T09:43:29.223Z,58.00
2018-02-01T09:45:56.905Z,58.00
2018-02-01T09:48:47.751Z,58.10
2018-02-01T09:51:20.336Z,56.70
2018-02-01T09:56:44.289Z,57.00
2018-02-01T09:59:11.805Z,55.50
2018-02-01T10:01:49.565Z,53.60
2018-02-01T10:04:20.227Z,53.70
2018-02-01T10:06:49.773Z,53.30
2018-02-01T10:09:17.556Z,52.40
2018-02-01T10:11:45.106Z,52.10
2018-02-01T10:14:13.389Z,50.20
2018-02-01T10:16:41.710Z,49.60
2018-02-01T10:19:09.355Z,49.60
2018-02-01T10:21:37.799Z,48.80
2018-02-01T10:24:18.489Z,48.80
2018-02-01T10:26:46.123Z,48.20
2018-02-01T10:29:15.271Z,47.20
2018-02-01T10:31:43.656Z,44.90
2018-02-01T10:34:11.303Z,44.20
2018-02-01T10:36:38.814Z,43.70
2018-02-01T10:39:06.318Z,43.60
2018-02-01T10:41:34.622Z,42.70
2018-02-01T10:44:02.230Z,42.60
2018-02-01T10:46:29.832Z,42.40
2018-02-01T10:48:57.385Z,41.60
2018-02-01T10:51:25.032Z,40.50
2018-02-01T10:53:52.624Z,41.40
2018-02-01T10:56:20.274Z,41.70
2018-02-01T10:58:47.809Z,41.80
2018-02-01T11:01:15.427Z,41.90
2018-02-01T11:03:42.994Z,41.90
2018-02-01T11:06:10.520Z,42.50
2018-02-01T11:08:38.442Z,43.00
2018-02-01T11:11:05.969Z,42.90
2018-02-01T11:13:34.282Z,43.40
2018-02-01T11:16:01.798Z,43.40
2018-02-01T11:18:29.600Z,43.60
2018-02-01T11:20:57.175Z,44.10
2018-02-01T11:23:24.716Z,45.40
2018-02-01T11:25:52.334Z,45.00
2018-02-01T11:28:20.728Z,45.90
2018-02-01T11:30:48.982Z,46.40
2018-02-01T11:33:16.598Z,46.40
2018-02-01T11:35:44.134Z,46.80
2018-02-01T11:38:12.127Z,46.20
2018-02-01T11:40:40.482Z,46.30
2018-02-01T11:43:08.059Z,46.20
2018-02-01T11:45:35.561Z,46.70
2018-02-01T11:48:03.853Z,46.60
2018-02-01T11:50:32.157Z,46.30
2018-02-01T11:52:59.727Z,46.30
2018-02-01T11:55:27.226Z,46.50
2018-02-01T11:57:54.747Z,47.20
2018-02-01T12:00:22.339Z,46.50
2018-02-01T12:02:50.077Z,46.50
2018-02-01T12:05:17.663Z,46.40
2018-02-01T12:07:46.181Z,45.10
2018-02-01T12:10:13.673Z,44.90
2018-02-01T12:12:41.212Z,44.00
2018-02-01T12:15:09.602Z,42.40
2018-02-01T12:17:37.874Z,42.40
2018-02-01T12:20:06.147Z,42.00
2018-02-01T12:22:33.762Z,42.00
2018-02-01T12:25:01.274Z,41.70
2018-02-01T12:27:28.834Z,41.40
2018-02-01T12:29:56.346Z,40.90
2018-02-01T12:32:23.933Z,39.80
2018-02-01T12:34:52.182Z,38.40
2018-02-01T12:37:20.186Z,38.40
2018-02-01T12:39:47.714Z,37.50
2018-02-01T12:42:15.221Z,38.40
2018-02-01T12:44:42.746Z,37.30
2018-02-01T12:47:10.245Z,37.40
2018-02-01T12:49:37.805Z,38.80
2018-02-01T12:52:05.302Z,39.30
2018-02-01T12:54:33.710Z,40.30
2018-02-01T12:57:01.996Z,40.60
2018-02-01T12:59:29.517Z,40.40
2018-02-01T13:01:57.070Z,39.80
2018-02-01T13:04:24.557Z,39.40
2018-02-01T13:06:52.117Z,38.60
2018-02-01T13:09:19.727Z,38.40
2018-02-01T13:11:48.397Z,37.60
2018-02-01T13:14:15.922Z,37.60
2018-02-01T13:16:44.440Z,36.40
2018-02-01T13:19:12.067Z,36.40
2018-02-01T13:21:41.085Z,35.80
2018-02-01T13:24:08.634Z,35.80
2018-02-01T13:26:36.144Z,36.40
2018-02-01T13:29:04.485Z,35.70
2018-02-01T13:31:32.736Z,35.70
2018-02-01T13:34:00.254Z,35.70
2018-02-01T13:36:27.780Z,35.40
2018-02-01T13:38:55.262Z,35.60
2018-02-01T13:41:22.783Z,35.00
2018-02-01T13:43:50.568Z,34.30
2018-02-01T13:46:18.163Z,34.80
2018-02-01T13:48:45.739Z,34.20
2018-02-01T13:51:13.323Z,34.30
2018-02-01T13:53:40.830Z,34.80
2018-02-01T13:56:08.397Z,34.60
2018-02-01T13:58:35.928Z,34.70
2018-02-01T14:01:03.405Z,34.30
2018-02-01T14:03:30.906Z,34.50
2018-02-01T14:05:58.445Z,34.20
2018-02-01T14:08:25.957Z,34.30
2018-02-01T14:10:53.519Z,34.00
2018-02-01T14:13:21.108Z,34.60
2018-02-01T14:15:48.833Z,34.80
2018-02-01T14:18:16.354Z,36.60
2018-02-01T14:20:43.961Z,37.30
2018-02-01T14:23:11.520Z,37.80
2018-02-01T14:25:39.820Z,39.10
2018-02-01T14:28:07.407Z,39.00
2018-02-01T14:30:34.966Z,40.00
2018-02-01T14:33:03.214Z,40.70
2018-02-01T14:35:31.627Z,40.70
2018-02-01T14:37:59.913Z,40.40
2018-02-01T14:40:28.320Z,39.90
2018-02-01T14:42:56.590Z,40.40
2018-02-01T14:45:24.188Z,40.40
2018-02-01T14:47:52.489Z,40.50
2018-02-01T14:50:19.992Z,40.60
2018-02-01T14:52:47.514Z,41.10
2018-02-01T14:55:15.019Z,41.90
2018-02-01T14:57:42.584Z,42.20
2018-02-01T15:00:10.082Z,42.60
2018-02-01T15:02:37.574Z,43.20
2018-02-01T15:05:05.882Z,44.50
2018-02-01T15:07:34.143Z,44.50
2018-02-01T15:10:01.658Z,44.50
2018-02-01T15:12:29.152Z,44.80
2018-02-01T15:14:56.650Z,45.40
2018-02-01T15:17:24.254Z,46.40
2018-02-01T15:19:51.769Z,46.30
2018-02-01T15:22:19.288Z,46.70
2018-02-01T15:24:47.078Z,47.00
2018-02-01T15:27:14.640Z,47.40
2018-02-01T15:29:42.257Z,47.50
2018-02-01T15:32:10.003Z,47.70
2018-02-01T15:34:37.538Z,48.00
2018-02-01T15:37:05.797Z,48.80
2018-02-01T15:39:33.322Z,48.80
2018-02-01T15:42:00.908Z,48.70
2018-02-01T15:44:28.609Z,48.90
2018-02-01T15:46:56.244Z,49.20
2018-02-01T15:49:23.861Z,49.30
2018-02-01T15:51:51.397Z,49.00
2018-02-01T15:54:18.945Z,49.40
2018-02-01T15:56:46.591Z,49.50
2018-02-01T15:59:14.199Z,49.80
2018-02-01T16:01:41.777Z,50.00
2018-02-01T16:04:09.370Z,50.00
2018-02-01T16:06:36.925Z,50.10
2018-02-01T16:09:04.602Z,50.30
2018-02-01T16:11:32.169Z,50.30
2018-02-01T16:13:59.754Z,50.40
2018-02-01T16:16:27.240Z,50.70
2018-02-01T16:18:54.865Z,50.70
2018-02-01T16:21:23.126Z,51.20
2018-02-01T16:23:51.495Z,51.00
2018-02-01T16:26:19.670Z,51.20
2018-02-01T16:28:47.409Z,51.20
2018-02-01T16:31:14.938Z,51.40
2018-02-01T16:33:42.510Z,51.40
2018-02-01T16:36:10.011Z,51.40
2018-02-01T16:38:37.614Z,51.30
2018-02-01T16:41:06.082Z,51.40
2018-02-01T16:43:34.494Z,51.50
2018-02-01T16:46:01.985Z,51.40
2018-02-01T16:48:29.636Z,51.50
2018-02-01T16:50:57.183Z,51.70
2018-02-01T16:53:25.514Z,51.80
2018-02-01T16:55:53.168Z,51.80
2018-02-01T16:58:20.874Z,51.90
2018-02-01T17:00:48.441Z,52.10
2018-02-01T17:03:16.040Z,52.20
2018-02-01T17:05:44.206Z,52.40
2018-02-01T17:08:11.818Z,52.50
2018-02-01T17:10:40.118Z,52.50
2018-02-01T17:13:08.534Z,52.90
2018-02-01T17:15:36.193Z,52.90
2018-02-01T17:18:03.726Z,53.00
2018-02-01T17:20:31.233Z,53.20
2018-02-01T17:22:58.737Z,53.30
2018-02-01T17:25:26.366Z,53.50
2018-02-01T17:27:54.744Z,53.70
2018-02-01T17:30:23.026Z,53.80
2018-02-01T17:32:51.420Z,53.90
2018-02-01T17:35:18.959Z,53.90
2018-02-01T17:37:47.217Z,54.10
2018-02-01T17:40:14.761Z,54.20
2018-02-01T17:42:43.055Z,54.30
2018-02-01T17:45:11.362Z,54.50
2018-02-01T17:47:38.927Z,54.40
2018-02-01T17:50:07.210Z,54.50
2018-02-01T17:52:34.912Z,54.50
2018-02-01T17:55:02.446Z,54.50
2018-02-01T17:57:30.781Z,54.80
2018-02-01T17:59:58.323Z,54.70
2018-02-01T18:02:26.477Z,54.70
2018-02-01T18:04:54.016Z,54.70
2018-02-01T18:07:21.568Z,54.80
2018-02-01T18:09:49.295Z,54.90
2018-02-01T18:12:16.865Z,54.90
2018-02-01T18:14:44.413Z,55.00
2018-02-01T18:17:13.700Z,55.10
2018-02-01T18:19:41.361Z,55.10
2018-02-01T18:22:08.885Z,55.20
2018-02-01T18:24:36.446Z,55.10
2018-02-01T18:27:03.983Z,55.10
2018-02-01T18:29:32.369Z,55.20
2018-02-01T18:31:59.891Z,54.90
2018-02-01T18:34:27.527Z,55.10
2018-02-01T18:36:55.104Z,54.80
2018-02-01T18:39:22.669Z,54.90
2018-02-01T18:41:50.193Z,54.90
2018-02-01T18:44:18.517Z,55.00
2018-02-01T18:46:46.221Z,55.00
2018-02-01T18:49:13.776Z,54.80
2018-02-01T18:51:41.424Z,54.70
2018-02-01T18:54:08.973Z,54.70
2018-02-01T18:56:37.263Z,54.70
2018-02-01T18:59:05.906Z,54.60
2018-02-01T19:01:33.754Z,54.60
2018-02-01T19:04:01.359Z,54.60
2018-02-01T19:06:28.877Z,54.50
2018-02-01T19:08:57.514Z,54.50
2018-02-01T19:11:25.006Z,54.50
2018-02-01T19:13:53.291Z,54.40
2018-02-01T19:16:20.980Z,54.50
2018-02-01T19:18:48.731Z,54.40
2018-02-01T19:21:16.264Z,54.50
2018-02-01T19:23:44.651Z,54.70
2018-02-01T19:26:13.160Z,54.60
2018-02-01T19:28:40.695Z,54.50
2018-02-01T19:31:08.250Z,54.60
2018-02-01T19:33:35.962Z,54.70
2018-02-01T19:36:03.676Z,54.70
2018-02-01T19:38:31.342Z,54.70
2018-02-01T19:40:58.899Z,54.60
2018-02-01T19:43:26.427Z,54.70
2018-02-01T19:45:53.981Z,54.60
2018-02-01T19:48:21.586Z,54.80
2018-02-01T19:50:49.907Z,54.70
2018-02-01T19:53:17.510Z,54.60
2018-02-01T19:55:45.022Z,54.70
2018-02-01T19:58:12.637Z,54.70
2018-02-01T20:00:40.402Z,54.80
2018-02-01T20:03:09.909Z,54.60
2018-02-01T20:05:37.777Z,54.60
2018-02-01T20:08:05.735Z,54.50
2018-02-01T20:10:34.331Z,54.60
2018-02-01T20:13:01.943Z,54.50
2018-02-01T20:15:29.611Z,54.80
2018-02-01T20:17:57.957Z,54.90
2018-02-01T20:20:25.569Z,54.90
2018-02-01T20:22:54.145Z,55.00
2018-02-01T20:25:21.728Z,55.00
2018-02-01T20:27:50.152Z,55.30
2018-02-01T20:30:18.484Z,55.20
2018-02-01T20:32:46.146Z,55.20
2018-02-01T20:35:14.128Z,55.30
2018-02-01T20:37:41.893Z,55.30
2018-02-01T20:40:09.705Z,55.20
2018-02-01T20:42:38.211Z,55.10
2018-02-01T20:45:05.782Z,55.40
2018-02-01T20:47:34.096Z,55.70
2018-02-01T20:50:01.646Z,55.40
2018-02-01T20:52:30.394Z,55.50
2018-02-01T20:54:58.276Z,55.40
2018-02-01T20:57:25.921Z,55.80
2018-02-01T20:59:53.513Z,55.30
2018-02-01T21:02:21.088Z,55.30
2018-02-01T21:04:48.751Z,55.40
2018-02-01T21:07:16.295Z,55.60
2018-02-01T21:09:44.588Z,55.80
2018-02-01T21:12:13.237Z,56.00
2018-02-01T21:14:40.852Z,55.90
2018-02-01T21:17:08.766Z,56.00
2018-02-01T21:19:36.340Z,56.00
2018-02-01T21:22:04.173Z,55.90
2018-02-01T21:24:31.789Z,58.00
2018-02-01T21:26:59.344Z,58.40
2018-02-01T21:29:26.909Z,57.70
2018-02-01T21:31:54.469Z,56.50
2018-02-01T21:34:22.781Z,55.80
2018-02-01T21:36:50.382Z,55.70
2018-02-01T21:39:17.903Z,59.10
2018-02-01T21:41:46.319Z,52.50
2018-02-01T21:44:14.016Z,52.40
2018-02-01T21:46:41.550Z,52.30
2018-02-01T21:49:09.076Z,52.50
2018-02-01T21:51:36.999Z,52.70
2018-02-01T21:54:04.694Z,53.20
2018-02-01T21:56:32.266Z,53.50
2018-02-01T21:58:59.780Z,53.80
2018-02-01T22:01:27.357Z,54.10
2018-02-01T22:03:55.690Z,54.90
2018-02-01T22:06:23.256Z,54.30
2018-02-01T22:08:50.766Z,54.70
2018-02-01T22:11:18.318Z,54.70
2018-02-01T22:13:45.858Z,54.80
2018-02-01T22:16:13.486Z,55.10
2018-02-01T22:18:41.238Z,55.10
2018-02-01T22:21:08.811Z,55.20
2018-02-01T22:23:36.599Z,55.30
2018-02-01T22:26:04.166Z,55.40
2018-02-01T22:28:31.684Z,55.30
2018-02-01T22:31:00.001Z,55.30
2018-02-01T22:33:27.541Z,55.30
2018-02-01T22:35:55.394Z,55.40
2018-02-01T22:38:22.993Z,55.40
2018-02-01T22:40:51.344Z,55.20
2018-02-01T22:43:18.919Z,55.20
2018-02-01T22:45:46.632Z,55.10
2018-02-01T22:48:14.246Z,55.00
2018-02-01T22:50:41.834Z,55.10
2018-02-01T22:53:09.433Z,55.10
2018-02-01T22:55:37.734Z,55.10
2018-02-01T22:58:05.272Z,55.10
2018-02-01T23:00:33.059Z,55.10
2018-02-01T23:03:00.596Z,55.40
2018-02-01T23:05:28.120Z,55.40
2018-02-01T23:07:57.116Z,55.40
2018-02-01T23:10:24.765Z,55.30
2018-02-01T23:12:52.280Z,55.40
2018-02-01T23:15:19.825Z,55.60
2018-02-01T23:17:47.311Z,55.70
2018-02-01T23:20:16.394Z,55.80
2018-02-01T23:22:43.889Z,55.80
2018-02-01T23:25:11.499Z,55.80
2018-02-01T23:27:39.070Z,55.90
2018-02-01T23:30:06.674Z,56.00
2018-02-01T23:32:34.238Z,56.20
2018-02-01T23:35:01.806Z,56.20
2018-02-01T23:37:29.301Z,56.30
2018-02-01T23:39:56.818Z,56.20
2018-02-01T23:42:25.136Z,56.40
2018-02-01T23:44:52.682Z,56.40
2018-02-01T23:47:21.183Z,56.50
2018-02-01T23:49:48.825Z,56.50
2018-02-01T23:52:16.449Z,56.70
2018-02-01T23:54:43.957Z,56.80
2018-02-01T23:57:11.613Z,56.90
2018-02-01T23:59:39.351Z,57.00
